sensor_id;sensor_type;location;lat;lon;timestamp;temperature;humidity
10123;DHT22;5101;49.038;8.710;2023-03-23T00:01:04;15.00;73.60
10123;DHT22;5101;49.038;8.710;2023-03-23T00:03:30;15.00;73.50
10123;DHT22;5101;49.038;8.710;2023-03-23T00:05:58;15.00;73.30
10123;DHT22;5101;49.038;8.710;2023-03-23T00:08:36;15.00;73.10
10123;DHT22;5101;49.038;8.710;2023-03-23T00:11:04;15.00;73.20
10123;DHT22;5101;49.038;8.710;2023-03-23T00:13:30;15.00;73.10
10123;DHT22;5101;49.038;8.710;2023-03-23T00:15:55;15.00;72.90
10123;DHT22;5101;49.038;8.710;2023-03-23T00:18:22;15.00;72.80
10123;DHT22;5101;49.038;8.710;2023-03-23T00:20:49;14.90;73.60
10123;DHT22;5101;49.038;8.710;2023-03-23T00:23:20;14.90;73.00
10123;DHT22;5101;49.038;8.710;2023-03-23T00:25:54;14.90;73.80
10123;DHT22;5101;49.038;8.710;2023-03-23T00:28:24;14.90;73.30
10123;DHT22;5101;49.038;8.710;2023-03-23T00:30:58;14.90;73.40
10123;DHT22;5101;49.038;8.710;2023-03-23T00:33:26;14.90;73.40
10123;DHT22;5101;49.038;8.710;2023-03-23T00:35:53;14.80;73.30
10123;DHT22;5101;49.038;8.710;2023-03-23T00:38:20;14.80;73.40
10123;DHT22;5101;49.038;8.710;2023-03-23T00:40:46;14.80;73.30
10123;DHT22;5101;49.038;8.710;2023-03-23T00:43:14;14.80;73.20
10123;DHT22;5101;49.038;8.710;2023-03-23T00:45:40;14.80;73.10
10123;DHT22;5101;49.038;8.710;2023-03-23T00:48:06;14.80;73.00
10123;DHT22;5101;49.038;8.710;2023-03-23T00:50:31;14.80;72.90
10123;DHT22;5101;49.038;8.710;2023-03-23T00:52:57;14.80;73.00
10123;DHT22;5101;49.038;8.710;2023-03-23T00:55:24;14.70;73.30
10123;DHT22;5101;49.038;8.710;2023-03-23T00:57:50;14.70;73.60
10123;DHT22;5101;49.038;8.710;2023-03-23T01:00:17;14.70;73.70
10123;DHT22;5101;49.038;8.710;2023-03-23T01:02:44;14.70;73.80
10123;DHT22;5101;49.038;8.710;2023-03-23T01:05:11;14.70;73.60
10123;DHT22;5101;49.038;8.710;2023-03-23T01:07:36;14.70;73.50
10123;DHT22;5101;49.038;8.710;2023-03-23T01:10:03;14.70;73.50
10123;DHT22;5101;49.038;8.710;2023-03-23T01:12:29;14.70;73.40
10123;DHT22;5101;49.038;8.710;2023-03-23T01:14:54;14.70;73.30
10123;DHT22;5101;49.038;8.710;2023-03-23T01:17:20;14.60;73.20
10123;DHT22;5101;49.038;8.710;2023-03-23T01:19:46;14.60;73.20
10123;DHT22;5101;49.038;8.710;2023-03-23T01:22:12;14.60;73.10
10123;DHT22;5101;49.038;8.710;2023-03-23T01:24:37;14.60;73.10
10123;DHT22;5101;49.038;8.710;2023-03-23T01:27:03;14.60;72.90
10123;DHT22;5101;49.038;8.710;2023-03-23T01:29:33;14.60;72.50
10123;DHT22;5101;49.038;8.710;2023-03-23T01:31:58;14.60;72.30
10123;DHT22;5101;49.038;8.710;2023-03-23T01:34:24;14.60;72.30
10123;DHT22;5101;49.038;8.710;2023-03-23T01:36:50;14.70;72.40
10123;DHT22;5101;49.038;8.710;2023-03-23T01:39:15;14.70;72.10
10123;DHT22;5101;49.038;8.710;2023-03-23T01:41:41;14.70;71.90
10123;DHT22;5101;49.038;8.710;2023-03-23T01:46:55;14.80;71.70
10123;DHT22;5101;49.038;8.710;2023-03-23T01:49:36;14.80;71.70
10123;DHT22;5101;49.038;8.710;2023-03-23T01:52:07;14.80;71.80
10123;DHT22;5101;49.038;8.710;2023-03-23T01:54:35;14.80;71.50
10123;DHT22;5101;49.038;8.710;2023-03-23T01:57:31;14.90;71.10
10123;DHT22;5101;49.038;8.710;2023-03-23T02:00:00;14.90;70.30
10123;DHT22;5101;49.038;8.710;2023-03-23T02:02:32;15.00;70.00
10123;DHT22;5101;49.038;8.710;2023-03-23T02:05:04;15.00;69.70
10123;DHT22;5101;49.038;8.710;2023-03-23T02:07:33;15.10;69.80
10123;DHT22;5101;49.038;8.710;2023-03-23T02:09:59;15.10;68.80
10123;DHT22;5101;49.038;8.710;2023-03-23T02:12:25;15.20;68.60
10123;DHT22;5101;49.038;8.710;2023-03-23T02:14:51;15.20;68.40
10123;DHT22;5101;49.038;8.710;2023-03-23T02:17:41;15.20;68.20
10123;DHT22;5101;49.038;8.710;2023-03-23T02:20:33;15.20;68.30
10123;DHT22;5101;49.038;8.710;2023-03-23T02:23:21;15.20;68.50
10123;DHT22;5101;49.038;8.710;2023-03-23T02:26:01;15.30;68.70
10123;DHT22;5101;49.038;8.710;2023-03-23T02:28:48;15.30;68.90
10123;DHT22;5101;49.038;8.710;2023-03-23T02:36:25;15.30;69.00
10123;DHT22;5101;49.038;8.710;2023-03-23T02:41:47;15.30;69.10
10123;DHT22;5101;49.038;8.710;2023-03-23T02:44:13;15.30;69.10
10123;DHT22;5101;49.038;8.710;2023-03-23T02:46:40;15.30;69.10
10123;DHT22;5101;49.038;8.710;2023-03-23T02:49:08;15.30;69.20
10123;DHT22;5101;49.038;8.710;2023-03-23T02:51:35;15.30;69.50
10123;DHT22;5101;49.038;8.710;2023-03-23T02:54:02;15.30;69.70
10123;DHT22;5101;49.038;8.710;2023-03-23T02:56:29;15.30;70.00
10123;DHT22;5101;49.038;8.710;2023-03-23T02:58:55;15.30;70.10
10123;DHT22;5101;49.038;8.710;2023-03-23T03:04:11;15.30;70.70
10123;DHT22;5101;49.038;8.710;2023-03-23T03:07:15;15.30;70.70
10123;DHT22;5101;49.038;8.710;2023-03-23T03:09:53;15.30;71.00
10123;DHT22;5101;49.038;8.710;2023-03-23T03:15:17;15.30;71.30
10123;DHT22;5101;49.038;8.710;2023-03-23T03:17:54;15.30;71.40
10123;DHT22;5101;49.038;8.710;2023-03-23T03:20:21;15.30;71.70
10123;DHT22;5101;49.038;8.710;2023-03-23T03:22:48;15.30;71.90
10123;DHT22;5101;49.038;8.710;2023-03-23T03:25:18;15.30;72.00
10123;DHT22;5101;49.038;8.710;2023-03-23T03:27:45;15.30;72.00
10123;DHT22;5101;49.038;8.710;2023-03-23T03:30:16;15.30;72.10
10123;DHT22;5101;49.038;8.710;2023-03-23T03:32:45;15.30;72.20
10123;DHT22;5101;49.038;8.710;2023-03-23T03:35:14;15.30;72.20
10123;DHT22;5101;49.038;8.710;2023-03-23T03:37:40;15.30;72.10
10123;DHT22;5101;49.038;8.710;2023-03-23T03:40:15;15.20;72.10
10123;DHT22;5101;49.038;8.710;2023-03-23T03:42:43;15.30;72.70
10123;DHT22;5101;49.038;8.710;2023-03-23T03:45:11;15.20;72.40
10123;DHT22;5101;49.038;8.710;2023-03-23T03:47:37;15.20;72.60
10123;DHT22;5101;49.038;8.710;2023-03-23T03:50:03;15.20;72.80
10123;DHT22;5101;49.038;8.710;2023-03-23T03:52:28;15.20;73.20
10123;DHT22;5101;49.038;8.710;2023-03-23T03:54:54;15.20;73.80
10123;DHT22;5101;49.038;8.710;2023-03-23T03:57:21;15.20;74.10
10123;DHT22;5101;49.038;8.710;2023-03-23T03:59:46;15.20;74.40
10123;DHT22;5101;49.038;8.710;2023-03-23T04:02:12;15.10;74.60
10123;DHT22;5101;49.038;8.710;2023-03-23T04:04:42;15.10;74.90
10123;DHT22;5101;49.038;8.710;2023-03-23T04:07:08;15.10;74.80
10123;DHT22;5101;49.038;8.710;2023-03-23T04:09:36;15.10;74.60
10123;DHT22;5101;49.038;8.710;2023-03-23T04:12:02;15.10;74.50
10123;DHT22;5101;49.038;8.710;2023-03-23T04:14:28;15.10;74.50
10123;DHT22;5101;49.038;8.710;2023-03-23T04:16:53;15.10;74.40
10123;DHT22;5101;49.038;8.710;2023-03-23T04:19:22;15.10;74.50
10123;DHT22;5101;49.038;8.710;2023-03-23T04:21:48;15.00;74.40
10123;DHT22;5101;49.038;8.710;2023-03-23T04:24:17;15.00;74.50
10123;DHT22;5101;49.038;8.710;2023-03-23T04:26:46;15.10;74.70
10123;DHT22;5101;49.038;8.710;2023-03-23T04:29:12;15.00;74.90
10123;DHT22;5101;49.038;8.710;2023-03-23T04:31:38;15.00;75.60
10123;DHT22;5101;49.038;8.710;2023-03-23T04:34:04;15.00;76.60
10123;DHT22;5101;49.038;8.710;2023-03-23T04:36:29;14.90;76.70
10123;DHT22;5101;49.038;8.710;2023-03-23T04:38:55;14.80;76.60
10123;DHT22;5101;49.038;8.710;2023-03-23T04:41:22;14.80;76.90
10123;DHT22;5101;49.038;8.710;2023-03-23T04:43:48;14.80;77.30
10123;DHT22;5101;49.038;8.710;2023-03-23T04:46:18;14.80;77.80
10123;DHT22;5101;49.038;8.710;2023-03-23T04:48:44;14.80;78.30
10123;DHT22;5101;49.038;8.710;2023-03-23T04:51:10;14.70;78.40
10123;DHT22;5101;49.038;8.710;2023-03-23T04:53:37;14.70;78.50
10123;DHT22;5101;49.038;8.710;2023-03-23T04:56:03;14.60;78.60
10123;DHT22;5101;49.038;8.710;2023-03-23T04:58:28;14.60;79.10
10123;DHT22;5101;49.038;8.710;2023-03-23T05:00:55;14.60;79.80
10123;DHT22;5101;49.038;8.710;2023-03-23T05:03:21;14.60;79.80
10123;DHT22;5101;49.038;8.710;2023-03-23T05:05:46;14.60;79.30
10123;DHT22;5101;49.038;8.710;2023-03-23T05:08:20;14.70;78.40
10123;DHT22;5101;49.038;8.710;2023-03-23T05:10:57;14.80;77.60
10123;DHT22;5101;49.038;8.710;2023-03-23T05:13:22;15.00;76.60
10123;DHT22;5101;49.038;8.710;2023-03-23T05:15:48;15.10;75.60
10123;DHT22;5101;49.038;8.710;2023-03-23T05:18:14;15.20;74.50
10123;DHT22;5101;49.038;8.710;2023-03-23T05:20:41;15.40;73.60
10123;DHT22;5101;49.038;8.710;2023-03-23T05:23:08;15.50;73.10
10123;DHT22;5101;49.038;8.710;2023-03-23T05:25:33;15.60;72.50
10123;DHT22;5101;49.038;8.710;2023-03-23T05:28:06;15.70;72.10
10123;DHT22;5101;49.038;8.710;2023-03-23T05:30:32;15.70;71.70
10123;DHT22;5101;49.038;8.710;2023-03-23T05:32:57;15.70;72.00
10123;DHT22;5101;49.038;8.710;2023-03-23T05:35:23;15.80;72.80
10123;DHT22;5101;49.038;8.710;2023-03-23T05:37:48;15.80;74.10
10123;DHT22;5101;49.038;8.710;2023-03-23T05:40:15;15.80;75.60
10123;DHT22;5101;49.038;8.710;2023-03-23T05:42:41;15.70;77.40
10123;DHT22;5101;49.038;8.710;2023-03-23T05:45:08;15.60;78.70
10123;DHT22;5101;49.038;8.710;2023-03-23T05:47:34;15.50;79.90
10123;DHT22;5101;49.038;8.710;2023-03-23T05:50:00;15.50;80.70
10123;DHT22;5101;49.038;8.710;2023-03-23T05:52:26;15.50;81.40
10123;DHT22;5101;49.038;8.710;2023-03-23T05:54:53;15.40;81.80
10123;DHT22;5101;49.038;8.710;2023-03-23T05:57:19;15.40;82.20
10123;DHT22;5101;49.038;8.710;2023-03-23T05:59:47;15.40;82.50
10123;DHT22;5101;49.038;8.710;2023-03-23T06:02:12;15.40;82.80
10123;DHT22;5101;49.038;8.710;2023-03-23T06:04:39;15.30;82.90
10123;DHT22;5101;49.038;8.710;2023-03-23T06:07:06;15.30;83.30
10123;DHT22;5101;49.038;8.710;2023-03-23T06:09:32;15.30;83.60
10123;DHT22;5101;49.038;8.710;2023-03-23T06:11:57;15.30;84.50
10123;DHT22;5101;49.038;8.710;2023-03-23T06:14:23;15.30;85.40
10123;DHT22;5101;49.038;8.710;2023-03-23T06:16:48;15.30;85.90
10123;DHT22;5101;49.038;8.710;2023-03-23T06:19:14;15.30;86.20
10123;DHT22;5101;49.038;8.710;2023-03-23T06:21:41;15.20;86.90
10123;DHT22;5101;49.038;8.710;2023-03-23T06:24:07;15.20;87.50
10123;DHT22;5101;49.038;8.710;2023-03-23T06:26:35;15.20;87.50
10123;DHT22;5101;49.038;8.710;2023-03-23T06:29:02;15.20;87.50
10123;DHT22;5101;49.038;8.710;2023-03-23T06:31:36;15.20;87.80
10123;DHT22;5101;49.038;8.710;2023-03-23T06:34:02;15.20;88.40
10123;DHT22;5101;49.038;8.710;2023-03-23T06:36:28;15.10;89.00
10123;DHT22;5101;49.038;8.710;2023-03-23T06:38:53;15.10;89.20
10123;DHT22;5101;49.038;8.710;2023-03-23T06:41:20;15.10;89.00
10123;DHT22;5101;49.038;8.710;2023-03-23T06:43:46;15.10;88.90
10123;DHT22;5101;49.038;8.710;2023-03-23T06:46:12;15.10;89.10
10123;DHT22;5101;49.038;8.710;2023-03-23T06:48:37;15.10;89.80
10123;DHT22;5101;49.038;8.710;2023-03-23T06:51:04;15.10;90.10
10123;DHT22;5101;49.038;8.710;2023-03-23T06:53:29;15.10;90.30
10123;DHT22;5101;49.038;8.710;2023-03-23T06:55:55;15.10;90.40
10123;DHT22;5101;49.038;8.710;2023-03-23T06:58:20;15.10;90.50
10123;DHT22;5101;49.038;8.710;2023-03-23T07:00:47;15.00;90.70
10123;DHT22;5101;49.038;8.710;2023-03-23T07:03:13;15.00;90.80
10123;DHT22;5101;49.038;8.710;2023-03-23T07:05:38;15.10;90.80
10123;DHT22;5101;49.038;8.710;2023-03-23T07:08:04;15.00;90.80
10123;DHT22;5101;49.038;8.710;2023-03-23T07:10:30;15.00;90.90
10123;DHT22;5101;49.038;8.710;2023-03-23T07:12:57;15.00;90.80
10123;DHT22;5101;49.038;8.710;2023-03-23T07:15:22;14.90;90.80
10123;DHT22;5101;49.038;8.710;2023-03-23T07:17:48;14.90;90.80
10123;DHT22;5101;49.038;8.710;2023-03-23T07:20:14;14.80;90.70
10123;DHT22;5101;49.038;8.710;2023-03-23T07:22:40;14.80;90.60
10123;DHT22;5101;49.038;8.710;2023-03-23T07:25:06;14.70;90.50
10123;DHT22;5101;49.038;8.710;2023-03-23T07:27:33;14.70;90.60
10123;DHT22;5101;49.038;8.710;2023-03-23T07:29:59;14.60;90.60
10123;DHT22;5101;49.038;8.710;2023-03-23T07:32:24;14.60;90.80
10123;DHT22;5101;49.038;8.710;2023-03-23T07:34:50;14.60;90.80
10123;DHT22;5101;49.038;8.710;2023-03-23T07:37:15;14.60;90.90
10123;DHT22;5101;49.038;8.710;2023-03-23T07:39:41;14.60;91.10
10123;DHT22;5101;49.038;8.710;2023-03-23T07:42:08;14.60;91.10
10123;DHT22;5101;49.038;8.710;2023-03-23T07:44:33;14.60;91.10
10123;DHT22;5101;49.038;8.710;2023-03-23T07:46:59;14.60;91.30
10123;DHT22;5101;49.038;8.710;2023-03-23T07:49:25;14.60;91.60
10123;DHT22;5101;49.038;8.710;2023-03-23T07:51:52;14.60;92.00
10123;DHT22;5101;49.038;8.710;2023-03-23T07:54:18;14.60;92.30
10123;DHT22;5101;49.038;8.710;2023-03-23T07:56:44;14.60;92.40
10123;DHT22;5101;49.038;8.710;2023-03-23T07:59:11;14.60;92.60
10123;DHT22;5101;49.038;8.710;2023-03-23T08:01:36;14.60;92.80
10123;DHT22;5101;49.038;8.710;2023-03-23T08:04:02;14.60;93.00
10123;DHT22;5101;49.038;8.710;2023-03-23T08:06:28;14.70;93.40
10123;DHT22;5101;49.038;8.710;2023-03-23T08:08:53;14.60;93.80
10123;DHT22;5101;49.038;8.710;2023-03-23T08:11:20;14.60;94.30
10123;DHT22;5101;49.038;8.710;2023-03-23T08:13:46;14.60;94.20
10123;DHT22;5101;49.038;8.710;2023-03-23T08:16:12;14.70;94.50
10123;DHT22;5101;49.038;8.710;2023-03-23T08:18:38;14.70;94.80
10123;DHT22;5101;49.038;8.710;2023-03-23T08:21:05;14.70;95.10
10123;DHT22;5101;49.038;8.710;2023-03-23T08:23:31;14.70;95.60
10123;DHT22;5101;49.038;8.710;2023-03-23T08:25:58;14.70;95.90
10123;DHT22;5101;49.038;8.710;2023-03-23T08:28:24;14.70;96.00
10123;DHT22;5101;49.038;8.710;2023-03-23T08:30:49;14.70;95.80
10123;DHT22;5101;49.038;8.710;2023-03-23T08:33:15;14.60;95.60
10123;DHT22;5101;49.038;8.710;2023-03-23T08:35:41;14.60;95.50
10123;DHT22;5101;49.038;8.710;2023-03-23T08:38:09;14.70;95.50
10123;DHT22;5101;49.038;8.710;2023-03-23T08:40:35;14.60;95.50
10123;DHT22;5101;49.038;8.710;2023-03-23T08:43:01;14.70;95.60
10123;DHT22;5101;49.038;8.710;2023-03-23T08:45:27;14.60;95.60
10123;DHT22;5101;49.038;8.710;2023-03-23T08:47:53;14.70;95.60
10123;DHT22;5101;49.038;8.710;2023-03-23T08:50:24;14.70;95.50
10123;DHT22;5101;49.038;8.710;2023-03-23T08:52:50;14.70;95.50
10123;DHT22;5101;49.038;8.710;2023-03-23T08:55:16;14.80;95.50
10123;DHT22;5101;49.038;8.710;2023-03-23T08:57:43;14.80;95.60
10123;DHT22;5101;49.038;8.710;2023-03-23T09:00:12;14.90;95.50
10123;DHT22;5101;49.038;8.710;2023-03-23T09:02:46;14.90;95.40
10123;DHT22;5101;49.038;8.710;2023-03-23T09:05:13;15.00;95.40
10123;DHT22;5101;49.038;8.710;2023-03-23T09:07:41;15.00;95.30
10123;DHT22;5101;49.038;8.710;2023-03-23T09:10:07;15.00;95.50
10123;DHT22;5101;49.038;8.710;2023-03-23T09:12:33;15.00;95.30
10123;DHT22;5101;49.038;8.710;2023-03-23T09:15:00;15.10;95.50
10123;DHT22;5101;49.038;8.710;2023-03-23T09:17:28;15.10;95.30
10123;DHT22;5101;49.038;8.710;2023-03-23T09:19:54;15.10;95.30
10123;DHT22;5101;49.038;8.710;2023-03-23T09:22:19;15.20;95.30
10123;DHT22;5101;49.038;8.710;2023-03-23T09:24:49;15.20;95.40
10123;DHT22;5101;49.038;8.710;2023-03-23T09:27:15;15.20;95.50
10123;DHT22;5101;49.038;8.710;2023-03-23T09:29:41;15.20;95.50
10123;DHT22;5101;49.038;8.710;2023-03-23T09:32:07;15.20;95.70
10123;DHT22;5101;49.038;8.710;2023-03-23T09:34:33;15.20;96.00
10123;DHT22;5101;49.038;8.710;2023-03-23T09:37:01;15.10;96.50
10123;DHT22;5101;49.038;8.710;2023-03-23T09:39:29;15.00;97.00
10123;DHT22;5101;49.038;8.710;2023-03-23T09:42:13;15.00;97.40
10123;DHT22;5101;49.038;8.710;2023-03-23T09:50:27;14.90;98.60
10123;DHT22;5101;49.038;8.710;2023-03-23T09:53:04;14.80;98.50
10123;DHT22;5101;49.038;8.710;2023-03-23T09:55:34;14.80;98.70
10123;DHT22;5101;49.038;8.710;2023-03-23T09:58:27;14.70;98.90
10123;DHT22;5101;49.038;8.710;2023-03-23T10:03:40;14.70;98.90
10123;DHT22;5101;49.038;8.710;2023-03-23T10:06:11;14.70;99.10
10123;DHT22;5101;49.038;8.710;2023-03-23T10:08:46;14.70;99.00
10123;DHT22;5101;49.038;8.710;2023-03-23T10:11:23;14.70;99.00
10123;DHT22;5101;49.038;8.710;2023-03-23T10:14:00;14.70;99.40
10123;DHT22;5101;49.038;8.710;2023-03-23T10:16:31;14.70;99.50
10123;DHT22;5101;49.038;8.710;2023-03-23T10:19:10;14.70;99.90
10123;DHT22;5101;49.038;8.710;2023-03-23T10:21:40;14.70;99.90
10123;DHT22;5101;49.038;8.710;2023-03-23T10:24:11;14.70;99.90
10123;DHT22;5101;49.038;8.710;2023-03-23T10:27:03;14.60;99.90
10123;DHT22;5101;49.038;8.710;2023-03-23T10:29:39;14.70;99.90
10123;DHT22;5101;49.038;8.710;2023-03-23T10:32:35;14.60;99.90
10123;DHT22;5101;49.038;8.710;2023-03-23T10:35:06;14.60;99.90
10123;DHT22;5101;49.038;8.710;2023-03-23T10:37:38;14.60;99.90
10123;DHT22;5101;49.038;8.710;2023-03-23T10:40:12;14.70;99.90
10123;DHT22;5101;49.038;8.710;2023-03-23T10:42:40;14.70;99.90
10123;DHT22;5101;49.038;8.710;2023-03-23T10:45:19;14.70;99.90
10123;DHT22;5101;49.038;8.710;2023-03-23T10:48:08;14.80;99.90
10123;DHT22;5101;49.038;8.710;2023-03-23T10:50:37;14.70;99.90
10123;DHT22;5101;49.038;8.710;2023-03-23T10:53:25;14.80;99.90
10123;DHT22;5101;49.038;8.710;2023-03-23T10:55:51;14.80;99.90
10123;DHT22;5101;49.038;8.710;2023-03-23T10:58:25;14.90;99.90
10123;DHT22;5101;49.038;8.710;2023-03-23T11:00:54;14.90;99.90
10123;DHT22;5101;49.038;8.710;2023-03-23T11:06:02;15.00;99.90
10123;DHT22;5101;49.038;8.710;2023-03-23T11:08:32;15.00;99.90
10123;DHT22;5101;49.038;8.710;2023-03-23T11:13:32;15.00;99.90
10123;DHT22;5101;49.038;8.710;2023-03-23T11:15:58;15.00;99.90
10123;DHT22;5101;49.038;8.710;2023-03-23T11:18:36;15.00;99.90
10123;DHT22;5101;49.038;8.710;2023-03-23T11:21:03;15.00;99.90
10123;DHT22;5101;49.038;8.710;2023-03-23T11:23:38;15.00;99.90
10123;DHT22;5101;49.038;8.710;2023-03-23T11:26:16;15.00;99.90
10123;DHT22;5101;49.038;8.710;2023-03-23T11:29:17;15.00;99.90
10123;DHT22;5101;49.038;8.710;2023-03-23T11:31:46;15.10;99.90
10123;DHT22;5101;49.038;8.710;2023-03-23T11:34:19;15.10;99.90
10123;DHT22;5101;49.038;8.710;2023-03-23T11:36:52;15.00;99.90
10123;DHT22;5101;49.038;8.710;2023-03-23T11:42:00;15.00;99.90
10123;DHT22;5101;49.038;8.710;2023-03-23T11:44:35;15.00;99.90
10123;DHT22;5101;49.038;8.710;2023-03-23T11:47:17;15.10;99.90
10123;DHT22;5101;49.038;8.710;2023-03-23T11:50:12;15.00;99.90
10123;DHT22;5101;49.038;8.710;2023-03-23T11:52:46;15.00;99.90
10123;DHT22;5101;49.038;8.710;2023-03-23T11:55:17;15.10;99.90
10123;DHT22;5101;49.038;8.710;2023-03-23T11:57:44;15.10;99.90
10123;DHT22;5101;49.038;8.710;2023-03-23T12:00:17;15.30;99.90
10123;DHT22;5101;49.038;8.710;2023-03-23T12:03:05;15.40;99.90
10123;DHT22;5101;49.038;8.710;2023-03-23T12:05:54;15.50;99.90
10123;DHT22;5101;49.038;8.710;2023-03-23T12:19:49;15.80;99.90
10123;DHT22;5101;49.038;8.710;2023-03-23T12:30:20;16.00;98.80
10123;DHT22;5101;49.038;8.710;2023-03-23T12:33:16;16.10;98.50
10123;DHT22;5101;49.038;8.710;2023-03-23T12:35:59;16.10;97.70
10123;DHT22;5101;49.038;8.710;2023-03-23T12:41:18;16.20;96.90
10123;DHT22;5101;49.038;8.710;2023-03-23T12:43:58;16.20;96.60
10123;DHT22;5101;49.038;8.710;2023-03-23T12:49:14;16.40;96.00
10123;DHT22;5101;49.038;8.710;2023-03-23T12:51:53;16.40;95.90
10123;DHT22;5101;49.038;8.710;2023-03-23T12:54:36;16.40;95.70
10123;DHT22;5101;49.038;8.710;2023-03-23T12:57:24;16.40;95.40
10123;DHT22;5101;49.038;8.710;2023-03-23T13:02:44;16.40;95.30
10123;DHT22;5101;49.038;8.710;2023-03-23T13:05:35;16.40;95.20
10123;DHT22;5101;49.038;8.710;2023-03-23T13:08:19;16.50;95.00
10123;DHT22;5101;49.038;8.710;2023-03-23T13:10:50;16.40;94.90
10123;DHT22;5101;49.038;8.710;2023-03-23T13:13:23;16.40;94.90
10123;DHT22;5101;49.038;8.710;2023-03-23T13:15:53;16.50;94.80
10123;DHT22;5101;49.038;8.710;2023-03-23T13:21:43;16.50;94.30
10123;DHT22;5101;49.038;8.710;2023-03-23T13:24:15;16.50;94.20
10123;DHT22;5101;49.038;8.710;2023-03-23T13:26:42;16.50;94.00
10123;DHT22;5101;49.038;8.710;2023-03-23T13:29:18;16.40;93.90
10123;DHT22;5101;49.038;8.710;2023-03-23T13:31:45;16.40;93.70
10123;DHT22;5101;49.038;8.710;2023-03-23T13:36:57;16.50;93.70
10123;DHT22;5101;49.038;8.710;2023-03-23T13:39:29;16.60;93.90
10123;DHT22;5101;49.038;8.710;2023-03-23T13:45:07;16.70;93.90
10123;DHT22;5101;49.038;8.710;2023-03-23T13:47:40;16.70;93.70
10123;DHT22;5101;49.038;8.710;2023-03-23T14:06:01;17.00;92.40
10123;DHT22;5101;49.038;8.710;2023-03-23T14:11:16;17.10;92.40
10123;DHT22;5101;49.038;8.710;2023-03-23T14:14:02;17.10;92.00
10123;DHT22;5101;49.038;8.710;2023-03-23T14:16:43;17.10;91.80
10123;DHT22;5101;49.038;8.710;2023-03-23T14:19:27;17.20;91.50
10123;DHT22;5101;49.038;8.710;2023-03-23T14:22:00;17.20;91.40
10123;DHT22;5101;49.038;8.710;2023-03-23T14:24:29;17.20;91.10
10123;DHT22;5101;49.038;8.710;2023-03-23T14:27:16;17.30;91.00
10123;DHT22;5101;49.038;8.710;2023-03-23T14:29:42;17.30;91.00
10123;DHT22;5101;49.038;8.710;2023-03-23T14:32:14;17.30;90.90
10123;DHT22;5101;49.038;8.710;2023-03-23T14:34:40;17.30;90.80
10123;DHT22;5101;49.038;8.710;2023-03-23T14:37:11;17.30;90.80
10123;DHT22;5101;49.038;8.710;2023-03-23T14:39:37;17.40;91.10
10123;DHT22;5101;49.038;8.710;2023-03-23T14:42:12;17.40;90.90
10123;DHT22;5101;49.038;8.710;2023-03-23T14:44:42;17.50;90.90
10123;DHT22;5101;49.038;8.710;2023-03-23T14:47:30;17.50;90.80
10123;DHT22;5101;49.038;8.710;2023-03-23T14:49:58;17.50;90.80
10123;DHT22;5101;49.038;8.710;2023-03-23T14:52:26;17.50;90.70
10123;DHT22;5101;49.038;8.710;2023-03-23T14:54:52;17.50;90.70
10123;DHT22;5101;49.038;8.710;2023-03-23T14:59:50;17.50;90.70
10123;DHT22;5101;49.038;8.710;2023-03-23T15:02:28;17.50;90.70
10123;DHT22;5101;49.038;8.710;2023-03-23T15:05:00;17.50;90.90
10123;DHT22;5101;49.038;8.710;2023-03-23T15:07:31;17.60;90.80
10123;DHT22;5101;49.038;8.710;2023-03-23T15:09:58;17.60;90.90
10123;DHT22;5101;49.038;8.710;2023-03-23T15:12:26;17.60;90.90
10123;DHT22;5101;49.038;8.710;2023-03-23T15:14:57;17.60;90.90
10123;DHT22;5101;49.038;8.710;2023-03-23T15:17:27;17.60;90.70
10123;DHT22;5101;49.038;8.710;2023-03-23T15:19:53;17.60;90.60
10123;DHT22;5101;49.038;8.710;2023-03-23T15:22:30;17.60;90.50
10123;DHT22;5101;49.038;8.710;2023-03-23T15:25:09;17.60;90.40
10123;DHT22;5101;49.038;8.710;2023-03-23T15:27:41;17.60;90.60
10123;DHT22;5101;49.038;8.710;2023-03-23T15:30:29;17.50;90.80
10123;DHT22;5101;49.038;8.710;2023-03-23T15:33:09;17.50;90.90
10123;DHT22;5101;49.038;8.710;2023-03-23T15:35:37;17.40;91.00
10123;DHT22;5101;49.038;8.710;2023-03-23T15:38:05;17.40;91.20
10123;DHT22;5101;49.038;8.710;2023-03-23T15:40:35;17.30;91.30
10123;DHT22;5101;49.038;8.710;2023-03-23T15:43:21;17.30;91.60
10123;DHT22;5101;49.038;8.710;2023-03-23T15:48:33;17.10;91.80
10123;DHT22;5101;49.038;8.710;2023-03-23T15:50:59;17.10;91.90
10123;DHT22;5101;49.038;8.710;2023-03-23T15:53:33;17.10;91.90
10123;DHT22;5101;49.038;8.710;2023-03-23T15:56:01;17.00;91.90
10123;DHT22;5101;49.038;8.710;2023-03-23T15:58:27;17.00;92.00
10123;DHT22;5101;49.038;8.710;2023-03-23T16:00:53;17.00;92.10
10123;DHT22;5101;49.038;8.710;2023-03-23T16:03:25;16.90;92.30
10123;DHT22;5101;49.038;8.710;2023-03-23T16:05:53;16.90;92.40
10123;DHT22;5101;49.038;8.710;2023-03-23T16:08:19;16.90;92.50
10123;DHT22;5101;49.038;8.710;2023-03-23T16:10:44;16.90;92.70
10123;DHT22;5101;49.038;8.710;2023-03-23T16:13:10;16.90;92.90
10123;DHT22;5101;49.038;8.710;2023-03-23T16:15:36;16.90;92.90
10123;DHT22;5101;49.038;8.710;2023-03-23T16:18:01;16.90;92.80
10123;DHT22;5101;49.038;8.710;2023-03-23T16:20:28;16.90;92.80
10123;DHT22;5101;49.038;8.710;2023-03-23T16:22:54;16.90;92.90
10123;DHT22;5101;49.038;8.710;2023-03-23T16:25:20;16.90;93.10
10123;DHT22;5101;49.038;8.710;2023-03-23T16:27:46;16.90;93.20
10123;DHT22;5101;49.038;8.710;2023-03-23T16:30:22;16.90;93.40
10123;DHT22;5101;49.038;8.710;2023-03-23T16:32:47;16.90;93.70
10123;DHT22;5101;49.038;8.710;2023-03-23T16:35:14;16.80;93.50
10123;DHT22;5101;49.038;8.710;2023-03-23T16:37:44;16.80;93.50
10123;DHT22;5101;49.038;8.710;2023-03-23T16:40:11;16.80;93.60
10123;DHT22;5101;49.038;8.710;2023-03-23T16:42:37;16.80;93.50
10123;DHT22;5101;49.038;8.710;2023-03-23T16:45:03;16.70;93.50
10123;DHT22;5101;49.038;8.710;2023-03-23T16:47:28;16.70;93.50
10123;DHT22;5101;49.038;8.710;2023-03-23T16:49:54;16.60;93.60
10123;DHT22;5101;49.038;8.710;2023-03-23T16:52:19;16.60;93.80
10123;DHT22;5101;49.038;8.710;2023-03-23T16:54:45;16.60;94.00
10123;DHT22;5101;49.038;8.710;2023-03-23T16:57:11;16.50;94.00
10123;DHT22;5101;49.038;8.710;2023-03-23T16:59:37;16.50;94.00
10123;DHT22;5101;49.038;8.710;2023-03-23T17:02:02;16.40;94.10
10123;DHT22;5101;49.038;8.710;2023-03-23T17:04:29;16.40;94.10
10123;DHT22;5101;49.038;8.710;2023-03-23T17:06:55;16.40;94.30
10123;DHT22;5101;49.038;8.710;2023-03-23T17:09:23;16.40;94.40
10123;DHT22;5101;49.038;8.710;2023-03-23T17:11:49;16.40;94.50
10123;DHT22;5101;49.038;8.710;2023-03-23T17:14:15;16.30;94.60
10123;DHT22;5101;49.038;8.710;2023-03-23T17:16:41;16.20;94.60
10123;DHT22;5101;49.038;8.710;2023-03-23T17:19:06;16.30;94.60
10123;DHT22;5101;49.038;8.710;2023-03-23T17:21:32;16.20;94.50
10123;DHT22;5101;49.038;8.710;2023-03-23T17:23:57;16.20;94.60
10123;DHT22;5101;49.038;8.710;2023-03-23T17:26:23;16.20;94.70
10123;DHT22;5101;49.038;8.710;2023-03-23T17:28:48;16.20;94.70
10123;DHT22;5101;49.038;8.710;2023-03-23T17:31:14;16.20;94.80
10123;DHT22;5101;49.038;8.710;2023-03-23T17:33:40;16.20;94.80